sensor_id;sensor_type;location;lat;lon;timestamp;P1;durP1;ratioP1;P2;durP2;ratioP2
20671;SDS011;10495;50.922;4.760;2023-06-04T00:01:38;4.07;;;1.10;;
20671;SDS011;10495;50.922;4.760;2023-06-04T00:04:03;1.67;;;1.23;;
20671;SDS011;10495;50.922;4.760;2023-06-04T00:06:29;1.40;;;1.07;;
20671;SDS011;10495;50.922;4.760;2023-06-04T00:08:54;1.47;;;1.10;;
20671;SDS011;10495;50.922;4.760;2023-06-04T00:11:20;1.67;;;1.20;;
20671;SDS011;10495;50.922;4.760;2023-06-04T00:13:46;1.33;;;1.17;;
20671;SDS011;10495;50.922;4.760;2023-06-04T00:16:11;1.20;;;0.90;;
20671;SDS011;10495;50.922;4.760;2023-06-04T00:18:38;0.97;;;0.90;;
20671;SDS011;10495;50.922;4.760;2023-06-04T00:21:03;1.37;;;0.90;;
20671;SDS011;10495;50.922;4.760;2023-06-04T00:23:29;1.73;;;1.23;;
20671;SDS011;10495;50.922;4.760;2023-06-04T00:25:54;1.73;;;1.23;;
20671;SDS011;10495;50.922;4.760;2023-06-04T00:28:20;2.87;;;1.30;;
20671;SDS011;10495;50.922;4.760;2023-06-04T00:30:46;1.60;;;1.17;;
20671;SDS011;10495;50.922;4.760;2023-06-04T00:33:12;1.50;;;1.07;;
20671;SDS011;10495;50.922;4.760;2023-06-04T00:35:37;1.60;;;1.13;;
20671;SDS011;10495;50.922;4.760;2023-06-04T00:38:03;3.17;;;1.40;;
20671;SDS011;10495;50.922;4.760;2023-06-04T00:40:29;1.50;;;1.27;;
20671;SDS011;10495;50.922;4.760;2023-06-04T00:42:54;1.40;;;1.00;;
20671;SDS011;10495;50.922;4.760;2023-06-04T00:45:22;1.63;;;1.00;;
20671;SDS011;10495;50.922;4.760;2023-06-04T00:47:50;1.57;;;1.47;;
20671;SDS011;10495;50.922;4.760;2023-06-04T00:50:16;1.20;;;1.10;;
20671;SDS011;10495;50.922;4.760;2023-06-04T00:52:43;2.63;;;1.23;;
20671;SDS011;10495;50.922;4.760;2023-06-04T00:55:08;2.83;;;1.20;;
20671;SDS011;10495;50.922;4.760;2023-06-04T00:57:35;1.27;;;0.97;;
20671;SDS011;10495;50.922;4.760;2023-06-04T01:00:02;2.20;;;1.20;;
20671;SDS011;10495;50.922;4.760;2023-06-04T01:02:30;1.37;;;1.13;;
20671;SDS011;10495;50.922;4.760;2023-06-04T01:07:35;2.43;;;1.57;;
20671;SDS011;10495;50.922;4.760;2023-06-04T01:10:01;1.57;;;1.20;;
20671;SDS011;10495;50.922;4.760;2023-06-04T01:12:27;2.00;;;1.47;;
20671;SDS011;10495;50.922;4.760;2023-06-04T01:14:52;2.03;;;1.40;;
20671;SDS011;10495;50.922;4.760;2023-06-04T01:17:22;2.23;;;1.60;;
20671;SDS011;10495;50.922;4.760;2023-06-04T01:22:39;2.50;;;1.33;;
20671;SDS011;10495;50.922;4.760;2023-06-04T01:25:34;3.00;;;1.50;;
20671;SDS011;10495;50.922;4.760;2023-06-04T01:28:04;2.20;;;1.50;;
20671;SDS011;10495;50.922;4.760;2023-06-04T01:30:36;1.67;;;1.33;;
20671;SDS011;10495;50.922;4.760;2023-06-04T01:33:08;1.40;;;1.30;;
20671;SDS011;10495;50.922;4.760;2023-06-04T01:35:36;1.60;;;1.43;;
20671;SDS011;10495;50.922;4.760;2023-06-04T01:38:01;2.37;;;1.70;;
20671;SDS011;10495;50.922;4.760;2023-06-04T01:40:27;2.80;;;1.80;;
20671;SDS011;10495;50.922;4.760;2023-06-04T01:42:53;1.53;;;1.27;;
20671;SDS011;10495;50.922;4.760;2023-06-04T01:45:20;2.23;;;1.33;;
20671;SDS011;10495;50.922;4.760;2023-06-04T01:47:47;1.97;;;1.63;;
20671;SDS011;10495;50.922;4.760;2023-06-04T01:50:12;3.97;;;1.60;;
20671;SDS011;10495;50.922;4.760;2023-06-04T01:52:39;1.20;;;1.10;;
20671;SDS011;10495;50.922;4.760;2023-06-04T01:55:05;1.90;;;1.23;;
20671;SDS011;10495;50.922;4.760;2023-06-04T01:57:33;1.60;;;1.50;;
20671;SDS011;10495;50.922;4.760;2023-06-04T01:59:59;1.90;;;1.53;;
20671;SDS011;10495;50.922;4.760;2023-06-04T02:02:25;2.10;;;1.47;;
20671;SDS011;10495;50.922;4.760;2023-06-04T02:04:51;1.30;;;1.17;;
20671;SDS011;10495;50.922;4.760;2023-06-04T02:07:18;3.20;;;1.47;;
20671;SDS011;10495;50.922;4.760;2023-06-04T02:09:47;2.37;;;1.30;;
20671;SDS011;10495;50.922;4.760;2023-06-04T02:12:13;1.87;;;1.60;;
20671;SDS011;10495;50.922;4.760;2023-06-04T02:14:38;2.00;;;1.50;;
20671;SDS011;10495;50.922;4.760;2023-06-04T02:17:06;2.00;;;1.60;;
20671;SDS011;10495;50.922;4.760;2023-06-04T02:19:37;1.73;;;1.53;;
20671;SDS011;10495;50.922;4.760;2023-06-04T02:22:13;1.60;;;1.43;;
20671;SDS011;10495;50.922;4.760;2023-06-04T02:24:39;3.67;;;2.00;;
20671;SDS011;10495;50.922;4.760;2023-06-04T02:27:07;2.10;;;1.90;;
20671;SDS011;10495;50.922;4.760;2023-06-04T02:29:38;2.63;;;2.10;;
20671;SDS011;10495;50.922;4.760;2023-06-04T02:32:05;4.23;;;2.13;;
20671;SDS011;10495;50.922;4.760;2023-06-04T02:34:31;2.33;;;1.83;;
20671;SDS011;10495;50.922;4.760;2023-06-04T02:36:57;1.90;;;1.70;;
20671;SDS011;10495;50.922;4.760;2023-06-04T02:39:23;2.53;;;2.13;;
20671;SDS011;10495;50.922;4.760;2023-06-04T02:41:49;2.50;;;2.00;;
20671;SDS011;10495;50.922;4.760;2023-06-04T02:44:15;3.87;;;2.03;;
20671;SDS011;10495;50.922;4.760;2023-06-04T02:46:40;2.53;;;2.20;;
20671;SDS011;10495;50.922;4.760;2023-06-04T02:49:06;2.40;;;2.10;;
20671;SDS011;10495;50.922;4.760;2023-06-04T02:51:31;2.17;;;1.80;;
20671;SDS011;10495;50.922;4.760;2023-06-04T02:53:57;2.87;;;1.77;;
20671;SDS011;10495;50.922;4.760;2023-06-04T02:56:23;2.20;;;1.83;;
20671;SDS011;10495;50.922;4.760;2023-06-04T02:58:49;2.37;;;1.80;;
20671;SDS011;10495;50.922;4.760;2023-06-04T03:01:20;3.97;;;2.00;;
20671;SDS011;10495;50.922;4.760;2023-06-04T03:03:47;2.07;;;1.60;;
20671;SDS011;10495;50.922;4.760;2023-06-04T03:06:13;4.00;;;1.70;;
20671;SDS011;10495;50.922;4.760;2023-06-04T03:08:39;2.67;;;2.03;;
20671;SDS011;10495;50.922;4.760;2023-06-04T03:11:05;2.97;;;2.00;;
20671;SDS011;10495;50.922;4.760;2023-06-04T03:13:31;2.20;;;1.80;;
20671;SDS011;10495;50.922;4.760;2023-06-04T03:15:57;2.50;;;1.73;;
20671;SDS011;10495;50.922;4.760;2023-06-04T03:18:25;2.17;;;1.70;;
20671;SDS011;10495;50.922;4.760;2023-06-04T03:20:52;3.50;;;2.07;;
20671;SDS011;10495;50.922;4.760;2023-06-04T03:23:19;2.73;;;1.80;;
20671;SDS011;10495;50.922;4.760;2023-06-04T03:25:45;2.33;;;1.80;;
20671;SDS011;10495;50.922;4.760;2023-06-04T03:28:11;2.60;;;1.80;;
20671;SDS011;10495;50.922;4.760;2023-06-04T03:30:36;3.37;;;2.10;;
20671;SDS011;10495;50.922;4.760;2023-06-04T03:33:02;2.40;;;2.10;;
20671;SDS011;10495;50.922;4.760;2023-06-04T03:35:28;2.30;;;1.93;;
20671;SDS011;10495;50.922;4.760;2023-06-04T03:37:53;4.03;;;2.20;;
20671;SDS011;10495;50.922;4.760;2023-06-04T03:40:19;2.23;;;1.80;;
20671;SDS011;10495;50.922;4.760;2023-06-04T03:42:45;2.43;;;1.90;;
20671;SDS011;10495;50.922;4.760;2023-06-04T03:45:10;1.93;;;1.70;;
20671;SDS011;10495;50.922;4.760;2023-06-04T03:47:37;2.10;;;1.67;;
20671;SDS011;10495;50.922;4.760;2023-06-04T03:50:04;3.23;;;1.73;;
20671;SDS011;10495;50.922;4.760;2023-06-04T03:52:30;3.37;;;1.90;;
20671;SDS011;10495;50.922;4.760;2023-06-04T03:54:56;2.40;;;2.13;;
20671;SDS011;10495;50.922;4.760;2023-06-04T03:57:22;2.17;;;1.87;;
20671;SDS011;10495;50.922;4.760;2023-06-04T03:59:48;4.13;;;2.43;;
20671;SDS011;10495;50.922;4.760;2023-06-04T04:02:13;3.80;;;2.33;;
20671;SDS011;10495;50.922;4.760;2023-06-04T04:04:40;2.77;;;2.07;;
20671;SDS011;10495;50.922;4.760;2023-06-04T04:07:05;5.30;;;2.20;;
20671;SDS011;10495;50.922;4.760;2023-06-04T04:09:31;2.57;;;2.30;;
20671;SDS011;10495;50.922;4.760;2023-06-04T04:11:56;2.70;;;2.00;;
20671;SDS011;10495;50.922;4.760;2023-06-04T04:14:22;2.57;;;2.07;;
20671;SDS011;10495;50.922;4.760;2023-06-04T04:16:48;2.10;;;1.90;;
20671;SDS011;10495;50.922;4.760;2023-06-04T04:19:13;3.13;;;2.10;;
20671;SDS011;10495;50.922;4.760;2023-06-04T04:21:39;2.50;;;2.03;;
20671;SDS011;10495;50.922;4.760;2023-06-04T04:24:05;2.80;;;2.10;;
20671;SDS011;10495;50.922;4.760;2023-06-04T04:26:32;2.07;;;1.77;;
20671;SDS011;10495;50.922;4.760;2023-06-04T04:28:57;2.23;;;1.80;;
20671;SDS011;10495;50.922;4.760;2023-06-04T04:31:25;2.80;;;1.90;;
20671;SDS011;10495;50.922;4.760;2023-06-04T04:33:55;2.37;;;1.70;;
20671;SDS011;10495;50.922;4.760;2023-06-04T04:36:21;2.83;;;2.03;;
20671;SDS011;10495;50.922;4.760;2023-06-04T04:38:47;3.60;;;2.20;;
20671;SDS011;10495;50.922;4.760;2023-06-04T04:41:19;2.87;;;2.43;;
20671;SDS011;10495;50.922;4.760;2023-06-04T04:43:47;2.63;;;2.07;;
20671;SDS011;10495;50.922;4.760;2023-06-04T04:46:13;2.33;;;2.00;;
20671;SDS011;10495;50.922;4.760;2023-06-04T04:48:38;3.87;;;2.37;;
20671;SDS011;10495;50.922;4.760;2023-06-04T04:51:05;3.27;;;2.30;;
20671;SDS011;10495;50.922;4.760;2023-06-04T04:53:31;2.43;;;2.13;;
20671;SDS011;10495;50.922;4.760;2023-06-04T04:55:57;2.87;;;2.10;;
20671;SDS011;10495;50.922;4.760;2023-06-04T04:58:23;4.33;;;2.77;;
20671;SDS011;10495;50.922;4.760;2023-06-04T05:00:48;5.47;;;2.47;;
20671;SDS011;10495;50.922;4.760;2023-06-04T05:03:14;5.17;;;2.73;;
20671;SDS011;10495;50.922;4.760;2023-06-04T05:05:40;3.53;;;2.70;;
20671;SDS011;10495;50.922;4.760;2023-06-04T05:08:06;3.60;;;2.73;;
20671;SDS011;10495;50.922;4.760;2023-06-04T05:10:32;5.93;;;3.13;;
20671;SDS011;10495;50.922;4.760;2023-06-04T05:13:00;6.20;;;2.60;;
20671;SDS011;10495;50.922;4.760;2023-06-04T05:15:26;2.93;;;2.33;;
20671;SDS011;10495;50.922;4.760;2023-06-04T05:17:52;3.67;;;2.50;;
20671;SDS011;10495;50.922;4.760;2023-06-04T05:20:18;2.83;;;2.50;;
20671;SDS011;10495;50.922;4.760;2023-06-04T05:22:46;5.10;;;2.60;;
20671;SDS011;10495;50.922;4.760;2023-06-04T05:25:11;5.83;;;2.67;;
20671;SDS011;10495;50.922;4.760;2023-06-04T05:27:37;3.27;;;2.40;;
20671;SDS011;10495;50.922;4.760;2023-06-04T05:30:05;2.60;;;2.40;;
20671;SDS011;10495;50.922;4.760;2023-06-04T05:32:31;5.47;;;2.30;;
20671;SDS011;10495;50.922;4.760;2023-06-04T05:34:58;3.43;;;2.20;;
20671;SDS011;10495;50.922;4.760;2023-06-04T05:37:24;3.67;;;2.20;;
20671;SDS011;10495;50.922;4.760;2023-06-04T05:39:53;5.70;;;2.63;;
20671;SDS011;10495;50.922;4.760;2023-06-04T05:42:22;5.13;;;2.40;;
20671;SDS011;10495;50.922;4.760;2023-06-04T05:44:48;5.40;;;2.77;;
20671;SDS011;10495;50.922;4.760;2023-06-04T05:47:15;2.97;;;2.13;;
20671;SDS011;10495;50.922;4.760;2023-06-04T05:49:44;4.57;;;2.50;;
20671;SDS011;10495;50.922;4.760;2023-06-04T05:52:10;3.43;;;2.40;;
20671;SDS011;10495;50.922;4.760;2023-06-04T05:54:35;3.65;;;2.30;;
20671;SDS011;10495;50.922;4.760;2023-06-04T05:57:04;4.83;;;2.70;;
20671;SDS011;10495;50.922;4.760;2023-06-04T05:59:30;3.57;;;2.30;;
20671;SDS011;10495;50.922;4.760;2023-06-04T06:01:56;2.53;;;2.13;;
20671;SDS011;10495;50.922;4.760;2023-06-04T06:04:22;5.53;;;2.63;;
20671;SDS011;10495;50.922;4.760;2023-06-04T06:06:48;5.57;;;2.30;;
20671;SDS011;10495;50.922;4.760;2023-06-04T06:09:14;4.75;;;2.38;;
20671;SDS011;10495;50.922;4.760;2023-06-04T06:11:41;6.25;;;2.60;;
20671;SDS011;10495;50.922;4.760;2023-06-04T06:14:07;4.15;;;2.75;;
20671;SDS011;10495;50.922;4.760;2023-06-04T06:16:32;3.30;;;2.53;;
20671;SDS011;10495;50.922;4.760;2023-06-04T06:18:59;3.28;;;2.45;;
20671;SDS011;10495;50.922;4.760;2023-06-04T06:21:26;3.72;;;2.15;;
20671;SDS011;10495;50.922;4.760;2023-06-04T06:23:52;5.20;;;2.33;;
20671;SDS011;10495;50.922;4.760;2023-06-04T06:26:18;5.38;;;2.97;;
20671;SDS011;10495;50.922;4.760;2023-06-04T06:28:44;2.75;;;2.00;;
20671;SDS011;10495;50.922;4.760;2023-06-04T06:31:09;4.78;;;2.20;;
20671;SDS011;10495;50.922;4.760;2023-06-04T06:33:35;4.95;;;2.25;;
20671;SDS011;10495;50.922;4.760;2023-06-04T06:36:15;3.25;;;2.42;;
20671;SDS011;10495;50.922;4.760;2023-06-04T06:38:41;2.80;;;2.00;;
20671;SDS011;10495;50.922;4.760;2023-06-04T06:41:07;5.85;;;2.28;;
20671;SDS011;10495;50.922;4.760;2023-06-04T06:43:33;2.10;;;1.90;;
20671;SDS011;10495;50.922;4.760;2023-06-04T06:45:59;5.50;;;2.60;;
20671;SDS011;10495;50.922;4.760;2023-06-04T06:48:24;2.95;;;2.08;;
20671;SDS011;10495;50.922;4.760;2023-06-04T06:50:50;7.32;;;2.28;;
20671;SDS011;10495;50.922;4.760;2023-06-04T06:53:15;4.63;;;2.28;;
20671;SDS011;10495;50.922;4.760;2023-06-04T06:55:41;4.68;;;2.10;;
20671;SDS011;10495;50.922;4.760;2023-06-04T06:58:07;5.32;;;2.40;;
20671;SDS011;10495;50.922;4.760;2023-06-04T07:00:32;2.75;;;2.05;;
20671;SDS011;10495;50.922;4.760;2023-06-04T07:02:58;2.45;;;2.15;;
20671;SDS011;10495;50.922;4.760;2023-06-04T07:05:23;3.33;;;1.95;;
20671;SDS011;10495;50.922;4.760;2023-06-04T07:07:49;3.70;;;2.20;;
20671;SDS011;10495;50.922;4.760;2023-06-04T07:10:15;5.00;;;2.05;;
20671;SDS011;10495;50.922;4.760;2023-06-04T07:12:40;6.43;;;2.13;;
20671;SDS011;10495;50.922;4.760;2023-06-04T07:15:06;4.40;;;2.13;;
20671;SDS011;10495;50.922;4.760;2023-06-04T07:17:34;3.60;;;2.38;;
20671;SDS011;10495;50.922;4.760;2023-06-04T07:20:00;6.47;;;2.13;;
20671;SDS011;10495;50.922;4.760;2023-06-04T07:22:25;7.30;;;2.15;;
20671;SDS011;10495;50.922;4.760;2023-06-04T07:24:51;5.00;;;2.15;;
20671;SDS011;10495;50.922;4.760;2023-06-04T07:27:17;3.20;;;1.80;;
20671;SDS011;10495;50.922;4.760;2023-06-04T07:29:44;6.60;;;1.95;;
20671;SDS011;10495;50.922;4.760;2023-06-04T07:32:10;2.58;;;1.90;;
20671;SDS011;10495;50.922;4.760;2023-06-04T07:34:37;5.43;;;2.72;;
20671;SDS011;10495;50.922;4.760;2023-06-04T07:37:03;3.58;;;2.20;;
20671;SDS011;10495;50.922;4.760;2023-06-04T07:39:29;2.72;;;2.10;;
20671;SDS011;10495;50.922;4.760;2023-06-04T07:41:55;3.67;;;2.00;;
20671;SDS011;10495;50.922;4.760;2023-06-04T07:44:20;4.63;;;2.00;;
20671;SDS011;10495;50.922;4.760;2023-06-04T07:46:46;3.72;;;1.75;;
20671;SDS011;10495;50.922;4.760;2023-06-04T07:49:11;3.92;;;2.10;;
20671;SDS011;10495;50.922;4.760;2023-06-04T07:51:37;4.47;;;1.83;;
20671;SDS011;10495;50.922;4.760;2023-06-04T07:54:03;3.72;;;1.95;;
20671;SDS011;10495;50.922;4.760;2023-06-04T07:56:28;2.47;;;1.90;;
20671;SDS011;10495;50.922;4.760;2023-06-04T07:58:54;1.85;;;1.60;;
20671;SDS011;10495;50.922;4.760;2023-06-04T08:01:20;2.88;;;1.90;;
20671;SDS011;10495;50.922;4.760;2023-06-04T08:03:46;2.85;;;1.50;;
20671;SDS011;10495;50.922;4.760;2023-06-04T08:06:12;2.28;;;1.63;;
20671;SDS011;10495;50.922;4.760;2023-06-04T08:08:41;4.63;;;1.90;;
20671;SDS011;10495;50.922;4.760;2023-06-04T08:11:14;3.63;;;1.98;;
20671;SDS011;10495;50.922;4.760;2023-06-04T08:13:40;4.63;;;1.45;;
20671;SDS011;10495;50.922;4.760;2023-06-04T08:16:06;4.82;;;1.73;;
20671;SDS011;10495;50.922;4.760;2023-06-04T08:18:32;4.93;;;1.67;;
20671;SDS011;10495;50.922;4.760;2023-06-04T08:20:58;1.95;;;1.50;;
20671;SDS011;10495;50.922;4.760;2023-06-04T08:23:23;2.35;;;1.40;;
20671;SDS011;10495;50.922;4.760;2023-06-04T08:25:49;2.35;;;1.58;;
20671;SDS011;10495;50.922;4.760;2023-06-04T08:28:15;3.25;;;1.50;;
20671;SDS011;10495;50.922;4.760;2023-06-04T08:30:42;3.80;;;1.60;;
20671;SDS011;10495;50.922;4.760;2023-06-04T08:33:08;3.35;;;1.80;;
20671;SDS011;10495;50.922;4.760;2023-06-04T08:35:33;2.30;;;1.45;;
20671;SDS011;10495;50.922;4.760;2023-06-04T08:37:59;2.80;;;1.80;;
20671;SDS011;10495;50.922;4.760;2023-06-04T08:40:24;2.13;;;1.70;;
20671;SDS011;10495;50.922;4.760;2023-06-04T08:42:50;10.70;;;2.35;;
20671;SDS011;10495;50.922;4.760;2023-06-04T08:45:23;1.98;;;1.75;;
20671;SDS011;10495;50.922;4.760;2023-06-04T08:47:49;1.90;;;1.60;;
20671;SDS011;10495;50.922;4.760;2023-06-04T08:50:20;1.98;;;1.52;;
20671;SDS011;10495;50.922;4.760;2023-06-04T08:52:49;4.13;;;1.85;;
20671;SDS011;10495;50.922;4.760;2023-06-04T08:55:18;2.67;;;1.85;;
20671;SDS011;10495;50.922;4.760;2023-06-04T08:57:44;3.88;;;2.08;;
20671;SDS011;10495;50.922;4.760;2023-06-04T09:00:12;4.35;;;1.92;;
20671;SDS011;10495;50.922;4.760;2023-06-04T09:02:38;4.88;;;2.00;;
20671;SDS011;10495;50.922;4.760;2023-06-04T09:05:04;2.60;;;1.98;;
20671;SDS011;10495;50.922;4.760;2023-06-04T09:07:34;3.88;;;2.00;;
20671;SDS011;10495;50.922;4.760;2023-06-04T09:10:06;3.15;;;2.38;;
20671;SDS011;10495;50.922;4.760;2023-06-04T09:12:37;2.25;;;2.03;;
20671;SDS011;10495;50.922;4.760;2023-06-04T09:15:09;3.08;;;2.10;;
20671;SDS011;10495;50.922;4.760;2023-06-04T09:17:35;2.95;;;1.77;;
20671;SDS011;10495;50.922;4.760;2023-06-04T09:20:01;4.65;;;2.10;;
20671;SDS011;10495;50.922;4.760;2023-06-04T09:22:33;2.63;;;1.77;;
20671;SDS011;10495;50.922;4.760;2023-06-04T09:25:05;2.35;;;1.92;;
20671;SDS011;10495;50.922;4.760;2023-06-04T09:27:38;4.22;;;2.03;;
20671;SDS011;10495;50.922;4.760;2023-06-04T09:30:05;5.05;;;1.98;;
20671;SDS011;10495;50.922;4.760;2023-06-04T09:32:33;5.00;;;2.13;;
20671;SDS011;10495;50.922;4.760;2023-06-04T09:35:15;2.83;;;1.83;;
20671;SDS011;10495;50.922;4.760;2023-06-04T09:37:42;4.22;;;1.83;;
20671;SDS011;10495;50.922;4.760;2023-06-04T09:40:21;5.07;;;2.22;;
20671;SDS011;10495;50.922;4.760;2023-06-04T09:42:47;3.85;;;1.90;;
20671;SDS011;10495;50.922;4.760;2023-06-04T09:45:29;2.50;;;1.70;;
20671;SDS011;10495;50.922;4.760;2023-06-04T09:47:56;5.57;;;1.73;;
20671;SDS011;10495;50.922;4.760;2023-06-04T09:50:32;3.42;;;1.60;;
20671;SDS011;10495;50.922;4.760;2023-06-04T09:52:59;1.60;;;1.50;;
20671;SDS011;10495;50.922;4.760;2023-06-04T09:55:25;1.77;;;1.60;;
20671;SDS011;10495;50.922;4.760;2023-06-04T09:57:52;4.50;;;1.75;;
20671;SDS011;10495;50.922;4.760;2023-06-04T10:00:21;5.30;;;1.60;;
20671;SDS011;10495;50.922;4.760;2023-06-04T10:02:49;3.13;;;2.10;;
20671;SDS011;10495;50.922;4.760;2023-06-04T10:05:16;4.13;;;2.40;;
20671;SDS011;10495;50.922;4.760;2023-06-04T10:07:46;3.80;;;2.00;;
20671;SDS011;10495;50.922;4.760;2023-06-04T10:10:16;2.38;;;1.77;;
20671;SDS011;10495;50.922;4.760;2023-06-04T10:12:45;5.43;;;1.90;;
20671;SDS011;10495;50.922;4.760;2023-06-04T10:15:41;2.63;;;1.70;;
20671;SDS011;10495;50.922;4.760;2023-06-04T10:18:07;4.25;;;1.60;;
20671;SDS011;10495;50.922;4.760;2023-06-04T10:20:33;3.78;;;1.52;;
20671;SDS011;10495;50.922;4.760;2023-06-04T10:22:59;3.08;;;1.70;;
20671;SDS011;10495;50.922;4.760;2023-06-04T10:25:26;4.53;;;1.55;;
20671;SDS011;10495;50.922;4.760;2023-06-04T10:27:52;4.07;;;1.67;;
20671;SDS011;10495;50.922;4.760;2023-06-04T10:30:18;1.80;;;1.48;;
20671;SDS011;10495;50.922;4.760;2023-06-04T10:32:44;7.30;;;1.90;;
20671;SDS011;10495;50.922;4.760;2023-06-04T10:35:11;16.67;;;2.22;;
20671;SDS011;10495;50.922;4.760;2023-06-04T10:37:37;5.70;;;2.42;;
20671;SDS011;10495;50.922;4.760;2023-06-04T10:40:02;7.15;;;1.63;;
20671;SDS011;10495;50.922;4.760;2023-06-04T10:42:38;4.20;;;1.50;;
20671;SDS011;10495;50.922;4.760;2023-06-04T10:45:07;1.50;;;1.40;;
20671;SDS011;10495;50.922;4.760;2023-06-04T10:47:34;3.03;;;1.30;;
20671;SDS011;10495;50.922;4.760;2023-06-04T10:50:10;3.15;;;1.60;;
20671;SDS011;10495;50.922;4.760;2023-06-04T10:52:38;5.10;;;1.85;;
20671;SDS011;10495;50.922;4.760;2023-06-04T10:55:15;3.47;;;1.48;;
20671;SDS011;10495;50.922;4.760;2023-06-04T10:57:50;3.67;;;1.55;;
20671;SDS011;10495;50.922;4.760;2023-06-04T11:00:34;7.40;;;1.88;;
20671;SDS011;10495;50.922;4.760;2023-06-04T11:03:14;3.25;;;1.95;;
20671;SDS011;10495;50.922;4.760;2023-06-04T11:05:44;3.85;;;1.55;;
20671;SDS011;10495;50.922;4.760;2023-06-04T11:08:11;3.47;;;1.77;;
20671;SDS011;10495;50.922;4.760;2023-06-04T11:10:40;1.90;;;1.45;;
20671;SDS011;10495;50.922;4.760;2023-06-04T11:13:06;6.88;;;1.67;;
20671;SDS011;10495;50.922;4.760;2023-06-04T11:15:45;3.20;;;1.60;;
20671;SDS011;10495;50.922;4.760;2023-06-04T11:20:49;4.30;;;1.83;;
20671;SDS011;10495;50.922;4.760;2023-06-04T11:23:23;4.75;;;1.65;;
20671;SDS011;10495;50.922;4.760;2023-06-04T11:25:51;4.88;;;1.73;;
20671;SDS011;10495;50.922;4.760;2023-06-04T11:28:17;1.95;;;1.58;;
20671;SDS011;10495;50.922;4.760;2023-06-04T11:30:43;2.38;;;1.70;;
20671;SDS011;10495;50.922;4.760;2023-06-04T11:33:20;2.42;;;1.58;;
20671;SDS011;10495;50.922;4.760;2023-06-04T11:35:46;1.77;;;1.52;;
20671;SDS011;10495;50.922;4.760;2023-06-04T11:38:11;2.38;;;1.48;;
20671;SDS011;10495;50.922;4.760;2023-06-04T11:40:37;4.15;;;1.90;;
20671;SDS011;10495;50.922;4.760;2023-06-04T11:43:02;3.10;;;1.60;;
20671;SDS011;10495;50.922;4.760;2023-06-04T11:45:28;4.78;;;2.08;;
20671;SDS011;10495;50.922;4.760;2023-06-04T11:47:57;2.15;;;1.48;;
20671;SDS011;10495;50.922;4.760;2023-06-04T11:50:23;2.00;;;1.40;;
20671;SDS011;10495;50.922;4.760;2023-06-04T11:52:53;2.83;;;1.50;;
20671;SDS011;10495;50.922;4.760;2023-06-04T11:55:19;2.97;;;1.63;;
20671;SDS011;10495;50.922;4.760;2023-06-04T11:57:45;1.65;;;1.50;;
20671;SDS011;10495;50.922;4.760;2023-06-04T12:00:12;2.13;;;1.60;;
20671;SDS011;10495;50.922;4.760;2023-06-04T12:02:48;3.42;;;1.63;;
20671;SDS011;10495;50.922;4.760;2023-06-04T12:05:15;3.15;;;1.85;;
20671;SDS011;10495;50.922;4.760;2023-06-04T12:07:43;3.63;;;1.45;;
20671;SDS011;10495;50.922;4.760;2023-06-04T12:10:10;2.72;;;1.85;;
20671;SDS011;10495;50.922;4.760;2023-06-04T12:12:39;6.13;;;1.90;;
20671;SDS011;10495;50.922;4.760;2023-06-04T12:15:07;3.35;;;1.80;;
20671;SDS011;10495;50.922;4.760;2023-06-04T12:17:35;2.60;;;1.75;;
20671;SDS011;10495;50.922;4.760;2023-06-04T12:20:02;3.13;;;1.45;;
20671;SDS011;10495;50.922;4.760;2023-06-04T12:22:30;2.50;;;1.77;;
20671;SDS011;10495;50.922;4.760;2023-06-04T12:24:56;2.63;;;1.65;;
20671;SDS011;10495;50.922;4.760;2023-06-04T12:27:23;4.10;;;1.90;;
20671;SDS011;10495;50.922;4.760;2023-06-04T12:32:25;4.05;;;1.98;;
20671;SDS011;10495;50.922;4.760;2023-06-04T12:34:51;2.53;;;1.67;;
20671;SDS011;10495;50.922;4.760;2023-06-04T12:37:18;3.50;;;1.80;;
20671;SDS011;10495;50.922;4.760;2023-06-04T12:39:45;2.55;;;1.45;;
20671;SDS011;10495;50.922;4.760;2023-06-04T12:42:10;3.17;;;2.05;;
20671;SDS011;10495;50.922;4.760;2023-06-04T12:44:37;2.50;;;1.58;;
20671;SDS011;10495;50.922;4.760;2023-06-04T12:47:03;2.63;;;1.63;;
20671;SDS011;10495;50.922;4.760;2023-06-04T12:49:29;4.28;;;1.60;;
20671;SDS011;10495;50.922;4.760;2023-06-04T12:51:55;3.65;;;1.65;;
20671;SDS011;10495;50.922;4.760;2023-06-04T12:54:20;2.83;;;1.65;;
20671;SDS011;10495;50.922;4.760;2023-06-04T12:56:46;3.80;;;1.90;;
20671;SDS011;10495;50.922;4.760;2023-06-04T12:59:12;3.88;;;1.73;;
20671;SDS011;10495;50.922;4.760;2023-06-04T13:01:38;2.78;;;1.60;;
20671;SDS011;10495;50.922;4.760;2023-06-04T13:04:03;4.63;;;1.98;;
20671;SDS011;10495;50.922;4.760;2023-06-04T13:06:30;2.88;;;1.73;;
20671;SDS011;10495;50.922;4.760;2023-06-04T13:08:56;4.70;;;1.45;;
20671;SDS011;10495;50.922;4.760;2023-06-04T13:11:21;5.05;;;1.50;;
20671;SDS011;10495;50.922;4.760;2023-06-04T13:13:47;3.75;;;1.80;;
20671;SDS011;10495;50.922;4.760;2023-06-04T13:16:13;3.10;;;1.67;;
20671;SDS011;10495;50.922;4.760;2023-06-04T13:18:39;1.42;;;1.33;;
20671;SDS011;10495;50.922;4.760;2023-06-04T13:21:04;2.92;;;1.60;;
20671;SDS011;10495;50.922;4.760;2023-06-04T13:23:30;2.63;;;1.60;;
20671;SDS011;10495;50.922;4.760;2023-06-04T13:25:56;4.63;;;1.52;;
20671;SDS011;10495;50.922;4.760;2023-06-04T13:28:21;4.18;;;1.77;;
20671;SDS011;10495;50.922;4.760;2023-06-04T13:30:47;1.88;;;1.60;;
20671;SDS011;10495;50.922;4.760;2023-06-04T13:33:13;2.47;;;1.42;;
20671;SDS011;10495;50.922;4.760;2023-06-04T13:35:39;3.17;;;1.90;;
20671;SDS011;10495;50.922;4.760;2023-06-04T13:38:05;2.05;;;1.75;;
20671;SDS011;10495;50.922;4.760;2023-06-04T13:40:31;4.40;;;1.40;;
20671;SDS011;10495;50.922;4.760;2023-06-04T13:43:00;2.55;;;1.45;;
20671;SDS011;10495;50.922;4.760;2023-06-04T13:45:27;3.20;;;1.90;;
20671;SDS011;10495;50.922;4.760;2023-06-04T13:47:52;3.10;;;1.80;;
20671;SDS011;10495;50.922;4.760;2023-06-04T13:50:18;2.75;;;1.30;;
20671;SDS011;10495;50.922;4.760;2023-06-04T13:52:44;4.90;;;1.60;;
20671;SDS011;10495;50.922;4.760;2023-06-04T13:55:12;4.50;;;1.70;;
20671;SDS011;10495;50.922;4.760;2023-06-04T13:57:38;2.15;;;1.60;;
20671;SDS011;10495;50.922;4.760;2023-06-04T14:00:06;1.73;;;1.50;;
20671;SDS011;10495;50.922;4.760;2023-06-04T14:02:32;5.90;;;1.52;;
20671;SDS011;10495;50.922;4.760;2023-06-04T14:04:58;3.10;;;1.60;;
20671;SDS011;10495;50.922;4.760;2023-06-04T14:07:23;1.98;;;1.63;;
20671;SDS011;10495;50.922;4.760;2023-06-04T14:09:49;4.68;;;1.50;;
20671;SDS011;10495;50.922;4.760;2023-06-04T14:12:19;2.60;;;1.50;;
20671;SDS011;10495;50.922;4.760;2023-06-04T14:14:46;3.58;;;1.42;;
20671;SDS011;10495;50.922;4.760;2023-06-04T14:17:12;2.15;;;1.42;;
20671;SDS011;10495;50.922;4.760;2023-06-04T14:19:38;2.10;;;1.48;;
20671;SDS011;10495;50.922;4.760;2023-06-04T14:22:05;1.95;;;1.38;;
20671;SDS011;10495;50.922;4.760;2023-06-04T14:24:31;2.58;;;1.35;;
20671;SDS011;10495;50.922;4.760;2023-06-04T14:26:56;7.28;;;1.70;;
20671;SDS011;10495;50.922;4.760;2023-06-04T14:29:22;4.40;;;2.03;;
20671;SDS011;10495;50.922;4.760;2023-06-04T14:31:48;5.43;;;1.75;;
20671;SDS011;10495;50.922;4.760;2023-06-04T14:34:13;3.65;;;1.35;;
20671;SDS011;10495;50.922;4.760;2023-06-04T14:36:39;4.20;;;1.60;;
20671;SDS011;10495;50.922;4.760;2023-06-04T14:39:05;3.80;;;1.67;;
20671;SDS011;10495;50.922;4.760;2023-06-04T14:41:31;1.65;;;1.30;;
20671;SDS011;10495;50.922;4.760;2023-06-04T14:43:56;2.15;;;1.35;;
20671;SDS011;10495;50.922;4.760;2023-06-04T14:46:22;3.58;;;1.63;;
20671;SDS011;10495;50.922;4.760;2023-06-04T14:48:49;1.92;;;1.65;;
20671;SDS011;10495;50.922;4.760;2023-06-04T14:51:14;2.88;;;1.40;;
20671;SDS011;10495;50.922;4.760;2023-06-04T14:53:40;2.90;;;1.60;;
20671;SDS011;10495;50.922;4.760;2023-06-04T14:56:06;1.60;;;1.50;;
20671;SDS011;10495;50.922;4.760;2023-06-04T14:58:31;1.50;;;1.40;;